Chelmsford, MA (01824)

3:09 PM EDT on August 28, 2016 (GMT -0400)
| | Change Station

Elev -9999 ft 0.00 °N, 0.00 °E | Updated

Clear
Clear
79 °F
Feels Like 79 °F
N
10
Wind Variable Wind from SE
Gusts 14 mph

Today
High -- | Low -- °F
--% Chance of Precip.
Yesterday
High -- | Low -- °F
Precip. -- in
Pressure 30.22 in
Visibility 10.0 miles
Clouds Clear
Dew Point 58 °F
Humidity 48%
Rainfall --
Snow Depth Not available.
6:06 AM 7:25 PM
Waning Crescent, 14% visible
METAR KBED 281856Z 13008KT 10SM CLR 30/13 A3019 RMK AO2 SLP233 T03000133
Pressure 30.22 in
Visibility 10.0 miles
Clouds Clear
Dew Point 58 °F
Humidity 48%
Rainfall --
Snow Depth Not available.
6:06 AM 7:25 PM
Waning Crescent, 14% visible
METAR KBED 281856Z 13008KT 10SM CLR 30/13 A3019 RMK AO2 SLP233 T03000133

10-Day Weather Forecast

Almanac

Astronomy

Aug. 28, 2016 Rise Set
Actual Time
Civil Twilight
Nautical Twilight
Astronomical Twilight
Moon
Length of Visible Light
Length of Day
Tomorrow will be .
, % of the Moon is Illuminated

Today's Extremes

State Highs State Lows

Community

WunderPhotos

Upload Photos

1,935,660 photos uploaded!

WunderBlog® & News

Nearby

Air Quality

  Air Quality AQ Index Pollutant
Not available.

Snow Depth

Station Depth Elevation

Earthquake Activity

City Distance Mag. Time & Date
Minimum magnitude displayed is 2.5.

Coastal Water Temperatures

Place Temperature

Stations

Nearby Weather Stations

Station Location Temp. Windchill Dew Point Humidity Wind Precip. Elev Updated Type
                   

Watches & Warnings

There are currently no watches in effect.